sensor_id;sensor_type;location;lat;lon;timestamp;temperature;humidity
7234;DHT22;3658;47.992;10.158;2022-12-29T00:01:35;21.80;37.70
7234;DHT22;3658;47.992;10.158;2022-12-29T00:04:03;21.70;37.60
7234;DHT22;3658;47.992;10.158;2022-12-29T00:06:31;21.80;37.70
7234;DHT22;3658;47.992;10.158;2022-12-29T00:08:58;21.80;37.60
7234;DHT22;3658;47.992;10.158;2022-12-29T00:11:26;21.70;37.50
7234;DHT22;3658;47.992;10.158;2022-12-29T00:13:55;21.70;37.40
7234;DHT22;3658;47.992;10.158;2022-12-29T00:16:41;21.70;37.30
7234;DHT22;3658;47.992;10.158;2022-12-29T00:19:08;21.80;37.50
7234;DHT22;3658;47.992;10.158;2022-12-29T00:21:56;21.80;37.40
7234;DHT22;3658;47.992;10.158;2022-12-29T00:24:42;21.70;37.20
7234;DHT22;3658;47.992;10.158;2022-12-29T00:27:27;21.70;37.20
7234;DHT22;3658;47.992;10.158;2022-12-29T00:30:14;21.70;37.20
7234;DHT22;3658;47.992;10.158;2022-12-29T00:32:59;21.70;37.10
7234;DHT22;3658;47.992;10.158;2022-12-29T00:35:45;21.70;37.10
7234;DHT22;3658;47.992;10.158;2022-12-29T00:38:13;21.70;37.00
7234;DHT22;3658;47.992;10.158;2022-12-29T00:40:58;21.70;37.00
7234;DHT22;3658;47.992;10.158;2022-12-29T00:43:43;21.70;37.60
7234;DHT22;3658;47.992;10.158;2022-12-29T00:46:28;21.70;36.90
7234;DHT22;3658;47.992;10.158;2022-12-29T00:48:55;21.70;36.90
7234;DHT22;3658;47.992;10.158;2022-12-29T00:51:40;21.70;36.90
7234;DHT22;3658;47.992;10.158;2022-12-29T00:54:07;21.70;37.00
7234;DHT22;3658;47.992;10.158;2022-12-29T00:56:34;21.70;36.80
7234;DHT22;3658;47.992;10.158;2022-12-29T00:59:01;21.70;36.80
7234;DHT22;3658;47.992;10.158;2022-12-29T01:01:30;21.70;36.80
7234;DHT22;3658;47.992;10.158;2022-12-29T01:03:57;21.70;36.80
7234;DHT22;3658;47.992;10.158;2022-12-29T01:06:24;21.70;36.70
7234;DHT22;3658;47.992;10.158;2022-12-29T01:08:51;21.70;36.70
7234;DHT22;3658;47.992;10.158;2022-12-29T01:11:32;21.70;36.80
7234;DHT22;3658;47.992;10.158;2022-12-29T01:13:59;21.70;36.90
7234;DHT22;3658;47.992;10.158;2022-12-29T01:16:26;21.70;36.40
7234;DHT22;3658;47.992;10.158;2022-12-29T01:18:54;21.60;35.50
7234;DHT22;3658;47.992;10.158;2022-12-29T01:21:21;21.60;35.50
7234;DHT22;3658;47.992;10.158;2022-12-29T01:23:48;21.60;35.60
7234;DHT22;3658;47.992;10.158;2022-12-29T01:26:16;21.60;35.70
7234;DHT22;3658;47.992;10.158;2022-12-29T01:28:43;21.60;35.80
7234;DHT22;3658;47.992;10.158;2022-12-29T01:31:12;21.60;35.80
7234;DHT22;3658;47.992;10.158;2022-12-29T01:33:41;21.60;35.90
7234;DHT22;3658;47.992;10.158;2022-12-29T01:36:11;21.60;35.90
7234;DHT22;3658;47.992;10.158;2022-12-29T01:38:39;21.60;35.90
7234;DHT22;3658;47.992;10.158;2022-12-29T01:41:07;21.60;35.90
7234;DHT22;3658;47.992;10.158;2022-12-29T01:43:45;21.60;35.90
7234;DHT22;3658;47.992;10.158;2022-12-29T01:46:19;21.60;35.90
7234;DHT22;3658;47.992;10.158;2022-12-29T01:48:51;21.60;35.90
7234;DHT22;3658;47.992;10.158;2022-12-29T01:51:21;21.60;35.90
7234;DHT22;3658;47.992;10.158;2022-12-29T01:53:48;21.60;35.90
7234;DHT22;3658;47.992;10.158;2022-12-29T01:56:18;21.60;35.90
7234;DHT22;3658;47.992;10.158;2022-12-29T01:58:49;21.50;35.90
7234;DHT22;3658;47.992;10.158;2022-12-29T02:01:18;21.50;35.90
7234;DHT22;3658;47.992;10.158;2022-12-29T02:03:46;21.60;35.90
7234;DHT22;3658;47.992;10.158;2022-12-29T02:06:17;21.50;35.90
7234;DHT22;3658;47.992;10.158;2022-12-29T02:08:47;21.50;35.90
7234;DHT22;3658;47.992;10.158;2022-12-29T02:11:16;21.50;35.80
7234;DHT22;3658;47.992;10.158;2022-12-29T02:13:43;21.50;35.80
7234;DHT22;3658;47.992;10.158;2022-12-29T02:16:21;21.50;35.80
7234;DHT22;3658;47.992;10.158;2022-12-29T02:18:59;21.50;35.90
7234;DHT22;3658;47.992;10.158;2022-12-29T02:21:49;21.50;35.80
7234;DHT22;3658;47.992;10.158;2022-12-29T02:24:56;21.50;35.80
7234;DHT22;3658;47.992;10.158;2022-12-29T02:27:48;21.50;35.80
7234;DHT22;3658;47.992;10.158;2022-12-29T02:30:32;21.50;35.90
7234;DHT22;3658;47.992;10.158;2022-12-29T02:33:03;21.50;35.80
7234;DHT22;3658;47.992;10.158;2022-12-29T02:35:37;21.50;35.90
7234;DHT22;3658;47.992;10.158;2022-12-29T02:38:14;21.50;35.80
7234;DHT22;3658;47.992;10.158;2022-12-29T02:40:48;21.50;35.80
7234;DHT22;3658;47.992;10.158;2022-12-29T02:43:24;21.50;35.70
7234;DHT22;3658;47.992;10.158;2022-12-29T02:45:56;21.50;36.30
7234;DHT22;3658;47.992;10.158;2022-12-29T02:48:29;21.50;35.70
7234;DHT22;3658;47.992;10.158;2022-12-29T02:51:01;21.50;35.70
7234;DHT22;3658;47.992;10.158;2022-12-29T02:53:30;21.50;35.70
7234;DHT22;3658;47.992;10.158;2022-12-29T02:56:15;21.50;35.70
7234;DHT22;3658;47.992;10.158;2022-12-29T02:58:42;21.50;35.70
7234;DHT22;3658;47.992;10.158;2022-12-29T03:01:28;21.50;35.70
7234;DHT22;3658;47.992;10.158;2022-12-29T03:04:06;21.50;35.70
7234;DHT22;3658;47.992;10.158;2022-12-29T03:06:47;21.50;35.60
7234;DHT22;3658;47.992;10.158;2022-12-29T03:09:29;21.50;35.60
7234;DHT22;3658;47.992;10.158;2022-12-29T03:12:11;21.50;35.60
7234;DHT22;3658;47.992;10.158;2022-12-29T03:14:57;21.50;35.70
7234;DHT22;3658;47.992;10.158;2022-12-29T03:17:48;21.50;35.70
7234;DHT22;3658;47.992;10.158;2022-12-29T03:20:20;21.50;35.60
7234;DHT22;3658;47.992;10.158;2022-12-29T03:22:51;21.50;35.60
7234;DHT22;3658;47.992;10.158;2022-12-29T03:25:22;21.50;35.60
7234;DHT22;3658;47.992;10.158;2022-12-29T03:27:53;21.50;35.60
7234;DHT22;3658;47.992;10.158;2022-12-29T03:30:22;21.50;35.60
7234;DHT22;3658;47.992;10.158;2022-12-29T03:32:52;21.50;35.60
7234;DHT22;3658;47.992;10.158;2022-12-29T03:35:22;21.50;35.60
7234;DHT22;3658;47.992;10.158;2022-12-29T03:37:55;21.50;35.60
7234;DHT22;3658;47.992;10.158;2022-12-29T03:40:25;21.50;35.50
7234;DHT22;3658;47.992;10.158;2022-12-29T03:42:53;21.50;35.60
7234;DHT22;3658;47.992;10.158;2022-12-29T03:45:20;21.50;35.50
7234;DHT22;3658;47.992;10.158;2022-12-29T03:47:47;21.50;35.50
7234;DHT22;3658;47.992;10.158;2022-12-29T03:50:16;21.50;35.50
7234;DHT22;3658;47.992;10.158;2022-12-29T03:52:43;21.50;35.50
7234;DHT22;3658;47.992;10.158;2022-12-29T03:55:10;21.50;35.50
7234;DHT22;3658;47.992;10.158;2022-12-29T03:57:36;21.50;35.50
7234;DHT22;3658;47.992;10.158;2022-12-29T04:00:05;21.50;35.50
7234;DHT22;3658;47.992;10.158;2022-12-29T04:02:32;21.50;35.50
7234;DHT22;3658;47.992;10.158;2022-12-29T04:04:59;21.50;35.50
7234;DHT22;3658;47.992;10.158;2022-12-29T04:07:27;21.50;35.40
7234;DHT22;3658;47.992;10.158;2022-12-29T04:09:54;21.50;35.40
7234;DHT22;3658;47.992;10.158;2022-12-29T04:12:21;21.40;35.40
7234;DHT22;3658;47.992;10.158;2022-12-29T04:14:48;21.50;35.40
7234;DHT22;3658;47.992;10.158;2022-12-29T04:17:15;21.50;35.40
7234;DHT22;3658;47.992;10.158;2022-12-29T04:19:42;21.50;35.40
7234;DHT22;3658;47.992;10.158;2022-12-29T04:22:09;21.50;35.40
7234;DHT22;3658;47.992;10.158;2022-12-29T04:24:38;21.50;35.40
7234;DHT22;3658;47.992;10.158;2022-12-29T04:27:05;21.50;35.40
7234;DHT22;3658;47.992;10.158;2022-12-29T04:29:32;21.50;35.40
7234;DHT22;3658;47.992;10.158;2022-12-29T04:31:59;21.50;35.40
7234;DHT22;3658;47.992;10.158;2022-12-29T04:34:26;21.50;35.30
7234;DHT22;3658;47.992;10.158;2022-12-29T04:36:53;21.50;35.30
7234;DHT22;3658;47.992;10.158;2022-12-29T04:39:20;21.50;35.30
7234;DHT22;3658;47.992;10.158;2022-12-29T04:41:48;21.50;35.30
7234;DHT22;3658;47.992;10.158;2022-12-29T04:44:15;21.50;35.30
7234;DHT22;3658;47.992;10.158;2022-12-29T04:46:42;21.50;35.20
7234;DHT22;3658;47.992;10.158;2022-12-29T04:49:09;21.50;35.20
7234;DHT22;3658;47.992;10.158;2022-12-29T04:51:36;21.50;35.30
7234;DHT22;3658;47.992;10.158;2022-12-29T04:54:03;21.50;35.30
7234;DHT22;3658;47.992;10.158;2022-12-29T04:56:30;21.50;35.20
7234;DHT22;3658;47.992;10.158;2022-12-29T04:58:58;21.50;35.30
7234;DHT22;3658;47.992;10.158;2022-12-29T05:01:25;21.50;35.20
7234;DHT22;3658;47.992;10.158;2022-12-29T05:03:52;21.50;35.20
7234;DHT22;3658;47.992;10.158;2022-12-29T05:06:19;21.50;35.20
7234;DHT22;3658;47.992;10.158;2022-12-29T05:08:46;21.40;35.10
7234;DHT22;3658;47.992;10.158;2022-12-29T05:11:13;21.60;35.30
7234;DHT22;3658;47.992;10.158;2022-12-29T05:13:40;21.50;35.10
7234;DHT22;3658;47.992;10.158;2022-12-29T05:16:08;21.50;35.10
7234;DHT22;3658;47.992;10.158;2022-12-29T05:18:35;21.40;35.00
7234;DHT22;3658;47.992;10.158;2022-12-29T05:21:02;21.50;35.10
7234;DHT22;3658;47.992;10.158;2022-12-29T05:23:29;21.40;35.00
7234;DHT22;3658;47.992;10.158;2022-12-29T05:25:55;21.50;35.10
7234;DHT22;3658;47.992;10.158;2022-12-29T05:28:22;21.40;35.10
7234;DHT22;3658;47.992;10.158;2022-12-29T05:30:50;21.40;35.00
7234;DHT22;3658;47.992;10.158;2022-12-29T05:33:19;21.50;35.10
7234;DHT22;3658;47.992;10.158;2022-12-29T05:35:46;21.40;35.00
7234;DHT22;3658;47.992;10.158;2022-12-29T05:38:13;21.40;35.00
7234;DHT22;3658;47.992;10.158;2022-12-29T05:40:39;21.50;35.00
7234;DHT22;3658;47.992;10.158;2022-12-29T05:43:06;21.50;35.00
7234;DHT22;3658;47.992;10.158;2022-12-29T05:45:33;21.50;35.00
7234;DHT22;3658;47.992;10.158;2022-12-29T05:48:00;21.50;35.70
7234;DHT22;3658;47.992;10.158;2022-12-29T05:50:28;21.40;34.90
7234;DHT22;3658;47.992;10.158;2022-12-29T05:52:55;21.50;35.00
7234;DHT22;3658;47.992;10.158;2022-12-29T05:55:22;21.50;35.00
7234;DHT22;3658;47.992;10.158;2022-12-29T05:57:49;21.40;35.00
7234;DHT22;3658;47.992;10.158;2022-12-29T06:00:16;21.40;34.90
7234;DHT22;3658;47.992;10.158;2022-12-29T06:02:43;21.40;34.90
7234;DHT22;3658;47.992;10.158;2022-12-29T06:05:10;21.50;35.00
7234;DHT22;3658;47.992;10.158;2022-12-29T06:07:39;21.40;34.90
7234;DHT22;3658;47.992;10.158;2022-12-29T06:10:06;21.50;34.90
7234;DHT22;3658;47.992;10.158;2022-12-29T06:12:33;21.40;34.90
7234;DHT22;3658;47.992;10.158;2022-12-29T06:15:00;21.40;34.90
7234;DHT22;3658;47.992;10.158;2022-12-29T06:17:27;21.40;34.80
7234;DHT22;3658;47.992;10.158;2022-12-29T06:19:54;21.40;34.90
7234;DHT22;3658;47.992;10.158;2022-12-29T06:22:21;21.40;34.90
7234;DHT22;3658;47.992;10.158;2022-12-29T06:24:49;21.40;34.90
7234;DHT22;3658;47.992;10.158;2022-12-29T06:27:16;21.40;34.90
7234;DHT22;3658;47.992;10.158;2022-12-29T06:29:43;21.40;35.10
7234;DHT22;3658;47.992;10.158;2022-12-29T06:32:10;21.40;34.90
7234;DHT22;3658;47.992;10.158;2022-12-29T06:34:37;21.40;34.80
7234;DHT22;3658;47.992;10.158;2022-12-29T06:37:04;21.40;34.90
7234;DHT22;3658;47.992;10.158;2022-12-29T06:39:31;21.40;34.90
7234;DHT22;3658;47.992;10.158;2022-12-29T06:41:59;21.40;34.80
7234;DHT22;3658;47.992;10.158;2022-12-29T06:44:26;21.40;34.90
7234;DHT22;3658;47.992;10.158;2022-12-29T06:46:53;21.40;34.80
7234;DHT22;3658;47.992;10.158;2022-12-29T06:49:20;21.40;34.80
7234;DHT22;3658;47.992;10.158;2022-12-29T06:51:47;21.40;34.80
7234;DHT22;3658;47.992;10.158;2022-12-29T06:54:14;21.40;34.70
7234;DHT22;3658;47.992;10.158;2022-12-29T06:56:41;21.40;34.80
7234;DHT22;3658;47.992;10.158;2022-12-29T06:59:10;21.40;34.90
7234;DHT22;3658;47.992;10.158;2022-12-29T07:01:37;21.40;35.40
7234;DHT22;3658;47.992;10.158;2022-12-29T07:04:04;21.40;35.90
7234;DHT22;3658;47.992;10.158;2022-12-29T07:06:31;21.40;36.10
7234;DHT22;3658;47.992;10.158;2022-12-29T07:08:58;21.50;36.40
7234;DHT22;3658;47.992;10.158;2022-12-29T07:11:25;21.50;36.40
7234;DHT22;3658;47.992;10.158;2022-12-29T07:13:52;21.50;36.60
7234;DHT22;3658;47.992;10.158;2022-12-29T07:16:20;21.60;36.50
7234;DHT22;3658;47.992;10.158;2022-12-29T07:18:47;21.50;36.40
7234;DHT22;3658;47.992;10.158;2022-12-29T07:21:14;21.60;36.60
7234;DHT22;3658;47.992;10.158;2022-12-29T07:23:41;21.60;37.00
7234;DHT22;3658;47.992;10.158;2022-12-29T07:26:11;21.60;37.00
7234;DHT22;3658;47.992;10.158;2022-12-29T07:28:38;21.60;37.00
7234;DHT22;3658;47.992;10.158;2022-12-29T07:31:14;21.60;37.00
7234;DHT22;3658;47.992;10.158;2022-12-29T07:33:43;21.60;37.00
7234;DHT22;3658;47.992;10.158;2022-12-29T07:36:10;21.60;37.00
7234;DHT22;3658;47.992;10.158;2022-12-29T07:38:38;21.60;37.00
7234;DHT22;3658;47.992;10.158;2022-12-29T07:41:05;21.70;37.10
7234;DHT22;3658;47.992;10.158;2022-12-29T07:43:32;21.70;37.10
7234;DHT22;3658;47.992;10.158;2022-12-29T07:45:59;21.70;37.10
7234;DHT22;3658;47.992;10.158;2022-12-29T07:48:26;21.70;37.20
7234;DHT22;3658;47.992;10.158;2022-12-29T07:50:54;21.70;37.10
7234;DHT22;3658;47.992;10.158;2022-12-29T07:53:21;21.70;37.20
7234;DHT22;3658;47.992;10.158;2022-12-29T07:55:48;21.70;37.10
7234;DHT22;3658;47.992;10.158;2022-12-29T07:58:15;21.70;37.10
7234;DHT22;3658;47.992;10.158;2022-12-29T08:00:42;21.70;37.20
7234;DHT22;3658;47.992;10.158;2022-12-29T08:03:09;21.70;37.40
7234;DHT22;3658;47.992;10.158;2022-12-29T08:05:36;21.70;37.40
7234;DHT22;3658;47.992;10.158;2022-12-29T08:08:05;21.70;37.50
7234;DHT22;3658;47.992;10.158;2022-12-29T08:10:31;21.80;37.60
7234;DHT22;3658;47.992;10.158;2022-12-29T08:12:58;21.80;37.70
7234;DHT22;3658;47.992;10.158;2022-12-29T08:15:25;21.80;37.70
7234;DHT22;3658;47.992;10.158;2022-12-29T08:17:52;21.80;37.80
7234;DHT22;3658;47.992;10.158;2022-12-29T08:20:19;21.80;38.00
7234;DHT22;3658;47.992;10.158;2022-12-29T08:22:46;21.80;38.00
7234;DHT22;3658;47.992;10.158;2022-12-29T08:25:15;21.80;38.10
7234;DHT22;3658;47.992;10.158;2022-12-29T08:27:43;21.80;38.20
7234;DHT22;3658;47.992;10.158;2022-12-29T08:30:11;21.80;38.30
7234;DHT22;3658;47.992;10.158;2022-12-29T08:32:38;21.80;38.30
7234;DHT22;3658;47.992;10.158;2022-12-29T08:35:05;21.80;38.30
7234;DHT22;3658;47.992;10.158;2022-12-29T08:37:32;21.70;38.30
7234;DHT22;3658;47.992;10.158;2022-12-29T08:39:59;21.70;38.30
7234;DHT22;3658;47.992;10.158;2022-12-29T08:42:31;21.70;38.30
7234;DHT22;3658;47.992;10.158;2022-12-29T08:44:58;21.70;38.30
7234;DHT22;3658;47.992;10.158;2022-12-29T08:47:25;21.70;38.30
7234;DHT22;3658;47.992;10.158;2022-12-29T08:49:52;21.70;38.70
7234;DHT22;3658;47.992;10.158;2022-12-29T08:52:19;21.70;38.70
7234;DHT22;3658;47.992;10.158;2022-12-29T08:54:46;21.70;38.50
7234;DHT22;3658;47.992;10.158;2022-12-29T08:57:13;21.70;38.50
7234;DHT22;3658;47.992;10.158;2022-12-29T08:59:42;21.70;38.40
7234;DHT22;3658;47.992;10.158;2022-12-29T09:02:10;21.70;38.50
7234;DHT22;3658;47.992;10.158;2022-12-29T09:04:37;21.70;38.40
7234;DHT22;3658;47.992;10.158;2022-12-29T09:07:04;21.70;38.50
7234;DHT22;3658;47.992;10.158;2022-12-29T09:09:32;21.80;38.80
7234;DHT22;3658;47.992;10.158;2022-12-29T09:11:58;21.70;38.70
7234;DHT22;3658;47.992;10.158;2022-12-29T09:14:25;21.70;38.50
7234;DHT22;3658;47.992;10.158;2022-12-29T09:16:54;21.70;38.50
7234;DHT22;3658;47.992;10.158;2022-12-29T09:19:39;21.70;38.60
7234;DHT22;3658;47.992;10.158;2022-12-29T09:22:06;21.70;38.60
7234;DHT22;3658;47.992;10.158;2022-12-29T09:24:33;21.70;38.60
7234;DHT22;3658;47.992;10.158;2022-12-29T09:27:00;21.70;39.10
7234;DHT22;3658;47.992;10.158;2022-12-29T09:29:27;21.70;39.10
7234;DHT22;3658;47.992;10.158;2022-12-29T09:31:55;21.70;38.90
7234;DHT22;3658;47.992;10.158;2022-12-29T09:34:22;21.70;38.80
7234;DHT22;3658;47.992;10.158;2022-12-29T09:36:49;21.70;38.80
7234;DHT22;3658;47.992;10.158;2022-12-29T09:39:17;21.70;38.80
7234;DHT22;3658;47.992;10.158;2022-12-29T09:41:51;21.70;38.90
7234;DHT22;3658;47.992;10.158;2022-12-29T09:44:26;21.70;38.80
7234;DHT22;3658;47.992;10.158;2022-12-29T09:46:59;21.70;38.80
7234;DHT22;3658;47.992;10.158;2022-12-29T09:49:29;21.70;38.60
7234;DHT22;3658;47.992;10.158;2022-12-29T09:52:04;21.60;38.60
7234;DHT22;3658;47.992;10.158;2022-12-29T09:54:42;21.60;38.70
7234;DHT22;3658;47.992;10.158;2022-12-29T09:57:16;21.70;38.70
7234;DHT22;3658;47.992;10.158;2022-12-29T09:59:46;21.70;38.60
7234;DHT22;3658;47.992;10.158;2022-12-29T10:02:25;21.70;38.50
7234;DHT22;3658;47.992;10.158;2022-12-29T10:04:54;21.80;38.60
7234;DHT22;3658;47.992;10.158;2022-12-29T10:07:31;21.80;38.60
7234;DHT22;3658;47.992;10.158;2022-12-29T10:10:06;21.80;38.50
7234;DHT22;3658;47.992;10.158;2022-12-29T10:12:51;21.80;38.50
7234;DHT22;3658;47.992;10.158;2022-12-29T10:15:31;21.80;38.30
7234;DHT22;3658;47.992;10.158;2022-12-29T10:18:11;21.80;38.30
7234;DHT22;3658;47.992;10.158;2022-12-29T10:20:49;21.80;38.30
7234;DHT22;3658;47.992;10.158;2022-12-29T10:23:26;21.80;38.30
7234;DHT22;3658;47.992;10.158;2022-12-29T10:25:55;21.80;38.30
7234;DHT22;3658;47.992;10.158;2022-12-29T10:28:24;21.80;38.30
7234;DHT22;3658;47.992;10.158;2022-12-29T10:30:57;21.80;38.20
7234;DHT22;3658;47.992;10.158;2022-12-29T10:33:34;21.80;38.30
7234;DHT22;3658;47.992;10.158;2022-12-29T10:36:10;21.90;38.40
7234;DHT22;3658;47.992;10.158;2022-12-29T10:38:42;21.80;38.30
7234;DHT22;3658;47.992;10.158;2022-12-29T10:41:15;21.90;38.30
7234;DHT22;3658;47.992;10.158;2022-12-29T10:43:46;21.90;38.30
7234;DHT22;3658;47.992;10.158;2022-12-29T10:46:16;21.90;38.30
7234;DHT22;3658;47.992;10.158;2022-12-29T10:48:46;21.90;38.30
7234;DHT22;3658;47.992;10.158;2022-12-29T10:51:20;21.90;38.30
7234;DHT22;3658;47.992;10.158;2022-12-29T10:53:52;21.90;38.30
7234;DHT22;3658;47.992;10.158;2022-12-29T10:56:28;21.90;38.40
7234;DHT22;3658;47.992;10.158;2022-12-29T10:58:59;21.90;38.30
7234;DHT22;3658;47.992;10.158;2022-12-29T11:01:34;21.90;38.30
7234;DHT22;3658;47.992;10.158;2022-12-29T11:04:09;21.80;38.30
7234;DHT22;3658;47.992;10.158;2022-12-29T11:06:43;21.90;38.50
7234;DHT22;3658;47.992;10.158;2022-12-29T11:09:14;21.90;38.50
7234;DHT22;3658;47.992;10.158;2022-12-29T11:11:41;21.90;38.40
7234;DHT22;3658;47.992;10.158;2022-12-29T11:14:13;21.90;38.30
7234;DHT22;3658;47.992;10.158;2022-12-29T11:16:41;21.90;38.20
7234;DHT22;3658;47.992;10.158;2022-12-29T11:19:21;21.90;38.20
7234;DHT22;3658;47.992;10.158;2022-12-29T11:21:49;21.90;38.10
7234;DHT22;3658;47.992;10.158;2022-12-29T11:24:21;22.00;38.10
7234;DHT22;3658;47.992;10.158;2022-12-29T11:26:50;22.00;38.10
7234;DHT22;3658;47.992;10.158;2022-12-29T11:29:24;21.90;38.00
7234;DHT22;3658;47.992;10.158;2022-12-29T11:31:53;22.00;38.40
7234;DHT22;3658;47.992;10.158;2022-12-29T11:34:23;22.00;38.50
7234;DHT22;3658;47.992;10.158;2022-12-29T11:36:54;22.00;38.40
7234;DHT22;3658;47.992;10.158;2022-12-29T11:39:34;22.00;39.00
7234;DHT22;3658;47.992;10.158;2022-12-29T11:42:04;22.00;38.30
7234;DHT22;3658;47.992;10.158;2022-12-29T11:44:37;22.00;38.30
7234;DHT22;3658;47.992;10.158;2022-12-29T11:47:19;22.00;38.30
7234;DHT22;3658;47.992;10.158;2022-12-29T11:49:51;22.00;37.40
7234;DHT22;3658;47.992;10.158;2022-12-29T11:52:22;21.90;36.20
7234;DHT22;3658;47.992;10.158;2022-12-29T11:54:50;21.90;34.90
7234;DHT22;3658;47.992;10.158;2022-12-29T11:57:17;21.80;34.10
7234;DHT22;3658;47.992;10.158;2022-12-29T11:59:49;21.80;33.10
7234;DHT22;3658;47.992;10.158;2022-12-29T12:02:40;21.80;32.80
7234;DHT22;3658;47.992;10.158;2022-12-29T12:05:19;21.70;32.70
7234;DHT22;3658;47.992;10.158;2022-12-29T12:07:51;21.70;32.50
7234;DHT22;3658;47.992;10.158;2022-12-29T12:10:25;21.70;32.20
7234;DHT22;3658;47.992;10.158;2022-12-29T12:12:58;21.70;32.20
7234;DHT22;3658;47.992;10.158;2022-12-29T12:15:31;21.60;31.80
7234;DHT22;3658;47.992;10.158;2022-12-29T12:18:05;21.60;31.40
7234;DHT22;3658;47.992;10.158;2022-12-29T12:20:42;21.60;31.80
7234;DHT22;3658;47.992;10.158;2022-12-29T12:23:26;21.60;32.10
7234;DHT22;3658;47.992;10.158;2022-12-29T12:25:59;21.60;31.60
7234;DHT22;3658;47.992;10.158;2022-12-29T12:28:35;21.60;31.30
7234;DHT22;3658;47.992;10.158;2022-12-29T12:31:11;21.60;30.50
7234;DHT22;3658;47.992;10.158;2022-12-29T12:33:46;21.50;30.20
7234;DHT22;3658;47.992;10.158;2022-12-29T12:36:26;21.50;30.40
7234;DHT22;3658;47.992;10.158;2022-12-29T12:39:00;21.50;31.20
7234;DHT22;3658;47.992;10.158;2022-12-29T12:41:34;21.40;29.30
7234;DHT22;3658;47.992;10.158;2022-12-29T12:44:11;21.40;31.00
7234;DHT22;3658;47.992;10.158;2022-12-29T12:52:59;21.30;30.50
7234;DHT22;3658;47.992;10.158;2022-12-29T12:55:46;21.30;30.80
7234;DHT22;3658;47.992;10.158;2022-12-29T12:58:20;21.40;30.90
7234;DHT22;3658;47.992;10.158;2022-12-29T13:00:59;21.40;31.00
7234;DHT22;3658;47.992;10.158;2022-12-29T13:03:37;21.40;31.10
7234;DHT22;3658;47.992;10.158;2022-12-29T13:06:15;21.40;31.20
7234;DHT22;3658;47.992;10.158;2022-12-29T13:09:01;21.50;31.40
7234;DHT22;3658;47.992;10.158;2022-12-29T13:11:39;21.50;31.50
7234;DHT22;3658;47.992;10.158;2022-12-29T13:14:23;21.50;31.70
7234;DHT22;3658;47.992;10.158;2022-12-29T13:17:00;21.50;31.80
7234;DHT22;3658;47.992;10.158;2022-12-29T13:19:34;21.50;31.90
7234;DHT22;3658;47.992;10.158;2022-12-29T13:22:09;21.50;32.00
7234;DHT22;3658;47.992;10.158;2022-12-29T13:24:49;21.50;32.20
7234;DHT22;3658;47.992;10.158;2022-12-29T13:27:22;21.50;32.90
7234;DHT22;3658;47.992;10.158;2022-12-29T13:29:57;21.50;32.40
7234;DHT22;3658;47.992;10.158;2022-12-29T13:32:35;21.50;32.50
7234;DHT22;3658;47.992;10.158;2022-12-29T13:35:35;21.50;32.60
7234;DHT22;3658;47.992;10.158;2022-12-29T13:38:10;21.50;32.80
7234;DHT22;3658;47.992;10.158;2022-12-29T13:40:44;21.50;32.90
7234;DHT22;3658;47.992;10.158;2022-12-29T13:43:12;21.50;33.20
7234;DHT22;3658;47.992;10.158;2022-12-29T13:45:40;21.50;33.50
7234;DHT22;3658;47.992;10.158;2022-12-29T13:48:14;21.50;33.60
7234;DHT22;3658;47.992;10.158;2022-12-29T13:50:45;21.50;33.70
7234;DHT22;3658;47.992;10.158;2022-12-29T13:53:19;21.50;33.80
7234;DHT22;3658;47.992;10.158;2022-12-29T13:55:53;21.50;34.00
7234;DHT22;3658;47.992;10.158;2022-12-29T13:58:27;21.50;34.10
7234;DHT22;3658;47.992;10.158;2022-12-29T14:01:02;21.50;34.20
7234;DHT22;3658;47.992;10.158;2022-12-29T14:03:43;21.50;34.30
7234;DHT22;3658;47.992;10.158;2022-12-29T14:06:19;21.50;34.40
7234;DHT22;3658;47.992;10.158;2022-12-29T14:08:48;21.50;34.60
7234;DHT22;3658;47.992;10.158;2022-12-29T14:11:21;21.50;34.60
7234;DHT22;3658;47.992;10.158;2022-12-29T14:13:50;21.40;34.60
7234;DHT22;3658;47.992;10.158;2022-12-29T14:16:38;21.50;34.70
7234;DHT22;3658;47.992;10.158;2022-12-29T14:19:13;21.50;34.70
7234;DHT22;3658;47.992;10.158;2022-12-29T14:21:50;21.40;34.50
7234;DHT22;3658;47.992;10.158;2022-12-29T14:24:39;21.40;34.60
7234;DHT22;3658;47.992;10.158;2022-12-29T14:27:50;21.40;34.90
7234;DHT22;3658;47.992;10.158;2022-12-29T14:33:27;21.40;35.10
7234;DHT22;3658;47.992;10.158;2022-12-29T14:35:54;21.40;35.10
7234;DHT22;3658;47.992;10.158;2022-12-29T14:38:24;21.40;35.20
7234;DHT22;3658;47.992;10.158;2022-12-29T14:40:52;21.40;35.20
7234;DHT22;3658;47.992;10.158;2022-12-29T14:43:52;21.40;35.50
7234;DHT22;3658;47.992;10.158;2022-12-29T14:46:20;21.40;35.40
7234;DHT22;3658;47.992;10.158;2022-12-29T14:48:47;21.50;35.70
7234;DHT22;3658;47.992;10.158;2022-12-29T14:51:19;21.50;35.90
7234;DHT22;3658;47.992;10.158;2022-12-29T14:53:49;21.50;35.80
7234;DHT22;3658;47.992;10.158;2022-12-29T14:56:18;21.60;35.80
7234;DHT22;3658;47.992;10.158;2022-12-29T14:58:53;21.60;35.90
7234;DHT22;3658;47.992;10.158;2022-12-29T15:01:26;21.60;35.80
7234;DHT22;3658;47.992;10.158;2022-12-29T15:03:55;21.60;35.90
7234;DHT22;3658;47.992;10.158;2022-12-29T15:06:24;21.70;36.00
7234;DHT22;3658;47.992;10.158;2022-12-29T15:08:59;21.70;35.90
7234;DHT22;3658;47.992;10.158;2022-12-29T15:11:41;21.70;36.00
7234;DHT22;3658;47.992;10.158;2022-12-29T15:14:30;21.70;35.90
7234;DHT22;3658;47.992;10.158;2022-12-29T15:16:58;21.70;35.90
7234;DHT22;3658;47.992;10.158;2022-12-29T15:19:27;21.70;35.90
7234;DHT22;3658;47.992;10.158;2022-12-29T15:21:55;21.70;36.00
7234;DHT22;3658;47.992;10.158;2022-12-29T15:24:23;21.70;36.00
7234;DHT22;3658;47.992;10.158;2022-12-29T15:26:51;21.70;36.10
7234;DHT22;3658;47.992;10.158;2022-12-29T15:29:33;21.70;36.10
7234;DHT22;3658;47.992;10.158;2022-12-29T15:32:01;21.70;36.10
7234;DHT22;3658;47.992;10.158;2022-12-29T15:34:36;21.80;36.20
7234;DHT22;3658;47.992;10.158;2022-12-29T15:37:05;21.80;36.20
7234;DHT22;3658;47.992;10.158;2022-12-29T15:39:33;21.80;36.20
7234;DHT22;3658;47.992;10.158;2022-12-29T15:42:02;21.80;36.20
7234;DHT22;3658;47.992;10.158;2022-12-29T15:44:35;21.80;36.40
7234;DHT22;3658;47.992;10.158;2022-12-29T15:47:05;21.80;36.50
7234;DHT22;3658;47.992;10.158;2022-12-29T15:49:32;21.80;36.50
7234;DHT22;3658;47.992;10.158;2022-12-29T15:51:59;21.80;36.40
7234;DHT22;3658;47.992;10.158;2022-12-29T15:54:32;21.80;36.50
7234;DHT22;3658;47.992;10.158;2022-12-29T15:56:59;21.80;36.50
7234;DHT22;3658;47.992;10.158;2022-12-29T15:59:28;21.80;36.40
7234;DHT22;3658;47.992;10.158;2022-12-29T16:01:58;21.80;36.70
7234;DHT22;3658;47.992;10.158;2022-12-29T16:04:27;21.80;36.90
7234;DHT22;3658;47.992;10.158;2022-12-29T16:06:56;21.80;37.00
7234;DHT22;3658;47.992;10.158;2022-12-29T16:09:30;21.80;37.00
7234;DHT22;3658;47.992;10.158;2022-12-29T16:11:59;21.90;37.10
7234;DHT22;3658;47.992;10.158;2022-12-29T16:14:32;21.80;37.00
7234;DHT22;3658;47.992;10.158;2022-12-29T16:17:03;21.80;37.10
7234;DHT22;3658;47.992;10.158;2022-12-29T16:19:34;21.90;37.20
7234;DHT22;3658;47.992;10.158;2022-12-29T16:22:03;21.90;37.10